FREE11 CYED-CYXS
Flight info
| Callsign | FREE11 |
|---|---|
| Flight time | N/A |
| Altitude | 4500 |
| Route | VFR |
| Aircraft | B412/L-V/N |
Departure
| Time | 2026-04-10 00:20 |
|---|---|
| Airport | Edmonton (CFB Namao) Heliport (CYED) |
Arrival
| Time | N/A |
|---|---|
| Airport | Prince George (International) Airport (CYXS) |
| Time | Latitude | Longitude | Altitude | Speed | Heading |
|---|---|---|---|---|---|
| 2026-04-10 00:11 | 53.66773 | -113.47268 | 2243 ft | 0 kts | 45° |
| 2026-04-10 00:19 | 53.66778 | -113.47231 | 2270 ft | 9 kts | 63° |
| 2026-04-10 00:19 | 53.66717 | -113.47403 | 2516 ft | 48 kts | 244° |
| 2026-04-10 00:20 | 53.66668 | -113.47962 | 3039 ft | 46 kts | 280° |
| 2026-04-10 00:20 | 53.66776 | -113.48256 | 3682 ft | 16 kts | 52° |
| 2026-04-10 00:20 | 53.66942 | -113.48267 | 3999 ft | 47 kts | 348° |
| 2026-04-10 00:20 | 53.67453 | -113.48512 | 4059 ft | 99 kts | 333° |
| 2026-04-10 00:21 | 53.68135 | -113.49021 | 4106 ft | 110 kts | 332° |
| 2026-04-10 00:21 | 53.68841 | -113.49489 | 4211 ft | 113 kts | 334° |
| 2026-04-10 00:21 | 53.69478 | -113.50228 | 4301 ft | 105 kts | 312° |
| 2026-04-10 00:21 | 53.69855 | -113.51130 | 4675 ft | 94 kts | 288° |
| 2026-04-10 00:22 | 53.70025 | -113.52356 | 4514 ft | 121 kts | 278° |
| 2026-04-10 00:22 | 53.70183 | -113.53809 | 4303 ft | 128 kts | 276° |
| 2026-04-10 00:22 | 53.70336 | -113.55289 | 4144 ft | 128 kts | 279° |
| 2026-04-10 00:22 | 53.70468 | -113.56814 | 3857 ft | 136 kts | 274° |
| 2026-04-10 00:23 | 53.70580 | -113.58451 | 3489 ft | 138 kts | 274° |
| 2026-04-10 00:23 | 53.70711 | -113.60027 | 3314 ft | 132 kts | 279° |
| 2026-04-10 00:23 | 53.70934 | -113.61468 | 3339 ft | 126 kts | 284° |
| 2026-04-10 00:23 | 53.71054 | -113.62976 | 3180 ft | 131 kts | 274° |
| 2026-04-10 00:24 | 53.71203 | -113.64425 | 3311 ft | 119 kts | 279° |
| 2026-04-10 00:24 | 53.71320 | -113.65797 | 3390 ft | 121 kts | 274° |
| 2026-04-10 00:24 | 53.71419 | -113.67256 | 3314 ft | 127 kts | 274° |
| 2026-04-10 00:24 | 53.71519 | -113.68737 | 3311 ft | 125 kts | 274° |
| 2026-04-10 00:25 | 53.71626 | -113.70190 | 3308 ft | 126 kts | 277° |
| 2026-04-10 00:25 | 53.71766 | -113.71662 | 3183 ft | 130 kts | 274° |
| 2026-04-10 00:25 | 53.71864 | -113.73173 | 3123 ft | 128 kts | 273° |
| 2026-04-10 00:25 | 53.71995 | -113.74627 | 3188 ft | 123 kts | 279° |
| 2026-04-10 00:26 | 53.72193 | -113.76040 | 3246 ft | 123 kts | 281° |
| 2026-04-10 00:26 | 53.72258 | -113.77480 | 3274 ft | 124 kts | 267° |
| 2026-04-10 00:26 | 53.72223 | -113.78922 | 3307 ft | 122 kts | 268° |
| 2026-04-10 00:26 | 53.72193 | -113.80372 | 3259 ft | 126 kts | 266° |
| 2026-04-10 00:27 | 53.72177 | -113.81845 | 3256 ft | 124 kts | 272° |
| 2026-04-10 00:27 | 53.72172 | -113.83290 | 3332 ft | 123 kts | 264° |
| 2026-04-10 00:27 | 53.72104 | -113.84736 | 3327 ft | 127 kts | 263° |
| 2026-04-10 00:27 | 53.71984 | -113.86237 | 3231 ft | 126 kts | 256° |
| 2026-04-10 00:28 | 53.71743 | -113.87686 | 2862 ft | 130 kts | 250° |
| 2026-04-10 00:28 | 53.71583 | -113.89146 | 2700 ft | 125 kts | 256° |
| 2026-04-10 00:28 | 53.71511 | -113.90584 | 2581 ft | 120 kts | 261° |
| 2026-04-10 00:28 | 53.71492 | -113.91961 | 2572 ft | 115 kts | 264° |
| 2026-04-10 00:29 | 53.71509 | -113.93312 | 2449 ft | 121 kts | 260° |
| 2026-04-10 00:29 | 53.71481 | -113.94671 | 2451 ft | 111 kts | 263° |
| 2026-04-10 00:29 | 53.71480 | -113.95948 | 2494 ft | 107 kts | 265° |
| 2026-04-10 00:29 | 53.71559 | -113.97211 | 2504 ft | 109 kts | 274° |
| 2026-04-10 00:30 | 53.71656 | -113.98469 | 2542 ft | 108 kts | 268° |
| 2026-04-10 00:30 | 53.71750 | -113.99734 | 2620 ft | 113 kts | 277° |
| 2026-04-10 00:30 | 53.72013 | -114.01052 | 2630 ft | 121 kts | 286° |
| 2026-04-10 00:30 | 53.72197 | -114.02424 | 2699 ft | 120 kts | 274° |
| 2026-04-10 00:31 | 53.72280 | -114.03820 | 2777 ft | 121 kts | 269° |
| 2026-04-10 00:31 | 53.72343 | -114.05278 | 2696 ft | 128 kts | 269° |
| 2026-04-10 00:31 | 53.72411 | -114.06785 | 2648 ft | 127 kts | 271° |
| 2026-04-10 00:31 | 53.72468 | -114.08246 | 2695 ft | 124 kts | 266° |
| 2026-04-10 00:32 | 53.72422 | -114.09736 | 2610 ft | 128 kts | 260° |
| 2026-04-10 00:32 | 53.72360 | -114.11236 | 2577 ft | 128 kts | 264° |
| 2026-04-10 00:32 | 53.72348 | -114.12702 | 2679 ft | 122 kts | 266° |
| 2026-04-10 00:32 | 53.72368 | -114.14172 | 2646 ft | 128 kts | 268° |
| 2026-04-10 00:33 | 53.72439 | -114.15610 | 2753 ft | 122 kts | 272° |
| 2026-04-10 00:33 | 53.72537 | -114.17034 | 2799 ft | 122 kts | 272° |
| 2026-04-10 00:33 | 53.72637 | -114.18475 | 2801 ft | 125 kts | 275° |
| 2026-04-10 00:33 | 53.72791 | -114.19920 | 2813 ft | 125 kts | 278° |
| 2026-04-10 00:34 | 53.72969 | -114.21391 | 2732 ft | 129 kts | 279° |
| 2026-04-10 00:34 | 53.73164 | -114.22835 | 2798 ft | 123 kts | 278° |
| 2026-04-10 00:34 | 53.73340 | -114.24231 | 2901 ft | 122 kts | 278° |
| 2026-04-10 00:34 | 53.73523 | -114.25652 | 2892 ft | 126 kts | 281° |
| 2026-04-10 00:35 | 53.73756 | -114.27114 | 2787 ft | 131 kts | 283° |
| 2026-04-10 00:35 | 53.74021 | -114.28544 | 2651 ft | 121 kts | 276° |
| 2026-04-10 00:35 | 53.74075 | -114.29692 | 2737 ft | 71 kts | 277° |
| 2026-04-10 00:35 | 53.74170 | -114.30267 | 2625 ft | 30 kts | 274° |
| 2026-04-10 00:36 | 53.74193 | -114.30388 | 2363 ft | 0 kts | 271° |